createdAt,value
2023-04-14T00:00:19.637Z,48.41
2023-04-14T00:01:19.633Z,42.91
2023-04-14T00:02:19.758Z,41.30
2023-04-14T00:03:19.966Z,44.86
2023-04-14T00:04:19.962Z,55.22
2023-04-14T00:05:19.725Z,51.71
2023-04-14T00:06:19.601Z,45.53
2023-04-14T00:07:19.579Z,56.70
2023-04-14T00:08:19.595Z,50.96
2023-04-14T00:09:19.569Z,43.17
2023-04-14T00:10:19.554Z,55.37
2023-04-14T00:11:19.557Z,49.21
2023-04-14T00:12:19.538Z,39.75
2023-04-14T00:13:19.561Z,47.55
2023-04-14T00:14:19.518Z,54.34
2023-04-14T00:15:19.519Z,41.76
2023-04-14T00:16:19.531Z,48.17
2023-04-14T00:17:19.589Z,49.46
2023-04-14T00:18:19.521Z,55.24
2023-04-14T00:19:19.485Z,57.96
2023-04-14T00:20:19.488Z,43.11
2023-04-14T00:21:19.467Z,55.88
2023-04-14T00:22:19.466Z,60.35
2023-04-14T00:23:19.475Z,52.51
2023-04-14T00:24:19.448Z,52.21
2023-04-14T00:25:19.439Z,40.89
2023-04-14T00:26:19.429Z,38.97
2023-04-14T00:27:19.426Z,46.16
2023-04-14T00:28:19.443Z,43.55
2023-04-14T00:29:19.405Z,45.73
2023-04-14T00:30:19.400Z,55.10
2023-04-14T00:31:19.414Z,51.65
2023-04-14T00:32:19.402Z,44.37
2023-04-14T00:33:19.404Z,45.02
2023-04-14T00:34:19.366Z,41.54
2023-04-14T00:35:19.364Z,42.95
2023-04-14T00:36:19.359Z,39.84
2023-04-14T00:37:19.346Z,48.63
2023-04-14T00:38:19.362Z,52.81
2023-04-14T00:39:19.326Z,52.41
2023-04-14T00:40:19.331Z,47.64
2023-04-14T00:41:19.309Z,51.12
2023-04-14T00:42:19.299Z,57.00
2023-04-14T00:43:19.316Z,51.64
2023-04-14T00:44:19.282Z,55.69
2023-04-14T00:45:19.277Z,52.00
2023-04-14T00:46:19.302Z,56.59
2023-04-14T00:47:19.310Z,53.05
2023-04-14T00:48:19.303Z,48.78
2023-04-14T00:49:19.245Z,52.70
2023-04-14T00:50:19.242Z,54.58
2023-04-14T00:51:19.227Z,48.49
2023-04-14T00:52:19.218Z,53.94
2023-04-14T00:53:19.240Z,53.91
2023-04-14T00:54:19.211Z,60.96
2023-04-14T00:55:19.204Z,58.44
2023-04-14T00:56:19.188Z,54.69
2023-04-14T00:57:19.188Z,49.42
2023-04-14T00:58:19.197Z,50.58
2023-04-14T00:59:19.164Z,52.20
2023-04-14T01:00:19.168Z,43.64
2023-04-14T01:01:19.167Z,52.26
2023-04-14T01:02:19.210Z,46.96
2023-04-14T01:03:19.232Z,55.72
2023-04-14T01:04:19.230Z,61.00
2023-04-14T01:05:19.213Z,52.29
2023-04-14T01:06:19.101Z,46.15
2023-04-14T01:07:19.109Z,50.80
2023-04-14T01:08:19.130Z,56.40
2023-04-14T01:09:19.088Z,60.41
2023-04-14T01:10:19.077Z,42.12
2023-04-14T01:11:19.097Z,52.60
2023-04-14T01:12:19.081Z,62.48
2023-04-14T01:13:19.089Z,50.47
2023-04-14T01:14:19.045Z,54.74
2023-04-14T01:15:19.036Z,64.39
2023-04-14T01:16:19.052Z,44.05
2023-04-14T01:17:19.048Z,62.15
2023-04-14T01:18:19.036Z,57.86
2023-04-14T01:19:19.011Z,47.35
2023-04-14T01:20:18.994Z,58.16
2023-04-14T01:21:18.984Z,48.68
2023-04-14T01:22:18.980Z,57.18
2023-04-14T01:23:19.000Z,58.57
2023-04-14T01:24:18.962Z,45.78
2023-04-14T01:25:18.962Z,52.86
2023-04-14T01:26:18.965Z,55.62
2023-04-14T01:27:18.942Z,50.30
2023-04-14T01:28:18.969Z,60.81
2023-04-14T01:29:18.929Z,49.80
2023-04-14T01:30:18.929Z,41.24
2023-04-14T01:31:18.961Z,46.51
2023-04-14T01:32:18.906Z,41.20
2023-04-14T01:33:18.931Z,50.92
2023-04-14T01:34:18.894Z,50.92
2023-04-14T01:35:18.889Z,47.29
2023-04-14T01:36:18.874Z,49.85
2023-04-14T01:37:18.870Z,44.57
2023-04-14T01:38:18.862Z,48.83
2023-04-14T01:39:18.895Z,53.36
2023-04-14T01:40:18.847Z,41.46
2023-04-14T01:41:18.836Z,49.64
2023-04-14T01:42:18.831Z,58.90
2023-04-14T01:43:18.854Z,56.85
2023-04-14T01:44:18.815Z,57.31
2023-04-14T01:45:18.808Z,50.65
2023-04-14T01:46:18.858Z,41.35
2023-04-14T01:47:18.801Z,44.34
2023-04-14T01:48:18.790Z,53.86
2023-04-14T01:49:18.807Z,49.09
2023-04-14T01:50:18.772Z,40.74
2023-04-14T01:51:18.758Z,50.73
2023-04-14T01:52:18.752Z,46.41
2023-04-14T01:53:18.775Z,53.39
2023-04-14T01:54:18.731Z,54.06
2023-04-14T01:55:18.731Z,47.14
2023-04-14T01:56:18.719Z,46.02
2023-04-14T01:57:18.710Z,50.36
2023-04-14T01:58:18.727Z,46.58
2023-04-14T01:59:18.699Z,50.95
2023-04-14T02:00:18.693Z,40.41
2023-04-14T02:01:18.715Z,41.10
2023-04-14T02:02:18.744Z,46.97
2023-04-14T02:03:18.773Z,49.27
2023-04-14T02:04:18.698Z,44.47
2023-04-14T02:05:18.652Z,48.75
2023-04-14T02:06:18.658Z,49.60
2023-04-14T02:07:18.640Z,52.06
2023-04-14T02:08:18.650Z,55.62
2023-04-14T02:09:18.630Z,62.86
2023-04-14T02:10:18.612Z,51.89
2023-04-14T02:11:18.602Z,60.01
2023-04-14T02:12:18.600Z,54.52
2023-04-14T02:13:18.613Z,52.80
2023-04-14T02:14:18.604Z,48.16
2023-04-14T02:15:18.575Z,61.07
2023-04-14T02:16:18.592Z,58.30
2023-04-14T02:17:18.578Z,52.06
2023-04-14T02:18:18.583Z,45.70
2023-04-14T02:19:18.543Z,51.36
2023-04-14T02:20:18.533Z,54.71
2023-04-14T02:21:18.533Z,54.09
2023-04-14T02:22:18.519Z,55.20
2023-04-14T02:23:18.548Z,60.26
2023-04-14T02:24:18.503Z,52.04
2023-04-14T02:25:18.500Z,44.18
2023-04-14T02:26:18.493Z,53.92
2023-04-14T02:27:18.476Z,51.96
2023-04-14T02:28:18.497Z,50.62
2023-04-14T02:29:18.459Z,57.58
2023-04-14T02:30:18.452Z,56.32
2023-04-14T02:31:18.578Z,52.44
2023-04-14T02:32:18.535Z,62.97
2023-04-14T02:33:18.424Z,52.09
2023-04-14T02:34:18.441Z,48.34
2023-04-14T02:35:18.411Z,46.07
2023-04-14T02:36:18.409Z,45.04
2023-04-14T02:37:18.396Z,57.08
2023-04-14T02:38:18.386Z,50.89
2023-04-14T02:39:18.404Z,57.59
2023-04-14T02:40:18.375Z,51.15
2023-04-14T02:41:18.362Z,48.95
2023-04-14T02:42:18.356Z,49.50
2023-04-14T02:43:18.347Z,42.40
2023-04-14T02:44:18.366Z,58.28
2023-04-14T02:45:18.335Z,48.62
2023-04-14T02:46:18.341Z,50.69
2023-04-14T02:47:18.318Z,54.88
2023-04-14T02:48:18.324Z,61.00
2023-04-14T02:49:18.333Z,46.83
2023-04-14T02:50:18.302Z,49.51
2023-04-14T02:51:18.286Z,39.99
2023-04-14T02:52:18.282Z,43.87
2023-04-14T02:53:18.277Z,53.12
2023-04-14T02:54:18.292Z,50.15
2023-04-14T02:55:18.257Z,56.13
2023-04-14T02:56:18.253Z,51.55
2023-04-14T02:57:18.331Z,53.20
2023-04-14T02:58:18.256Z,50.76
2023-04-14T02:59:18.258Z,45.09
2023-04-14T03:00:18.226Z,53.19
2023-04-14T03:01:18.240Z,56.69
2023-04-14T03:02:18.292Z,50.35
2023-04-14T03:03:18.265Z,50.44
2023-04-14T03:04:18.281Z,57.39
2023-04-14T03:05:18.184Z,55.22
2023-04-14T03:06:18.176Z,52.97
2023-04-14T03:07:18.169Z,52.88
2023-04-14T03:08:18.152Z,50.08
2023-04-14T03:09:18.179Z,50.05
2023-04-14T03:10:18.139Z,47.35
2023-04-14T03:11:18.135Z,52.03
2023-04-14T03:12:18.128Z,56.26
2023-04-14T03:13:18.124Z,53.17
2023-04-14T03:14:18.139Z,48.83
2023-04-14T03:15:18.113Z,56.60
2023-04-14T03:16:18.125Z,55.94
2023-04-14T03:17:18.113Z,57.05
2023-04-14T03:18:18.087Z,55.39
2023-04-14T03:19:18.100Z,56.28
2023-04-14T03:20:18.097Z,50.04
2023-04-14T03:21:18.057Z,56.14
2023-04-14T03:22:18.050Z,55.68
2023-04-14T03:23:18.044Z,54.17
2023-04-14T03:24:18.068Z,54.78
2023-04-14T03:25:18.024Z,60.15
2023-04-14T03:26:18.021Z,54.84
2023-04-14T03:27:18.005Z,55.62
2023-04-14T03:28:17.994Z,51.28
2023-04-14T03:29:18.014Z,52.17
2023-04-14T03:30:17.985Z,55.41
2023-04-14T03:31:18.026Z,54.19
2023-04-14T03:32:17.968Z,59.08
2023-04-14T03:33:17.966Z,51.13
2023-04-14T03:34:17.988Z,60.53
2023-04-14T03:35:17.962Z,54.57
2023-04-14T03:36:17.940Z,53.67
2023-04-14T03:37:17.927Z,57.03
2023-04-14T03:38:17.922Z,57.71
2023-04-14T03:39:17.946Z,60.41
2023-04-14T03:40:17.903Z,57.89
2023-04-14T03:41:17.898Z,54.86
2023-04-14T03:42:17.891Z,53.27
2023-04-14T03:43:17.879Z,55.88
2023-04-14T03:44:17.875Z,49.47
2023-04-14T03:45:17.900Z,55.86
2023-04-14T03:46:17.904Z,56.91
2023-04-14T03:47:17.856Z,55.15
2023-04-14T03:48:17.849Z,58.49
2023-04-14T03:49:17.837Z,57.78
2023-04-14T03:50:17.853Z,57.17
2023-04-14T03:51:17.823Z,57.39
2023-04-14T03:52:17.810Z,55.98
2023-04-14T03:53:17.798Z,55.65
2023-04-14T03:54:17.799Z,56.87
2023-04-14T03:55:17.809Z,54.58
2023-04-14T03:56:17.803Z,51.88
2023-04-14T03:57:17.770Z,53.25
2023-04-14T03:58:17.766Z,58.14
2023-04-14T03:59:17.761Z,55.74
2023-04-14T04:00:17.768Z,52.34
2023-04-14T04:01:17.748Z,52.36
2023-04-14T04:02:17.814Z,55.52
2023-04-14T04:03:17.942Z,55.45
2023-04-14T04:04:17.783Z,59.11
2023-04-14T04:05:17.744Z,56.86
2023-04-14T04:06:17.701Z,52.42
2023-04-14T04:07:17.698Z,56.28
2023-04-14T04:08:17.689Z,58.32
2023-04-14T04:09:17.681Z,59.15
2023-04-14T04:10:17.697Z,56.86
2023-04-14T04:11:17.661Z,56.79
2023-04-14T04:12:17.651Z,62.21
2023-04-14T04:13:17.666Z,56.49
2023-04-14T04:14:17.641Z,61.73
2023-04-14T04:15:17.662Z,58.69
2023-04-14T04:16:17.693Z,63.26
2023-04-14T04:17:17.652Z,54.48
2023-04-14T04:18:17.609Z,56.12
2023-04-14T04:19:17.624Z,57.91
2023-04-14T04:20:17.597Z,62.02
2023-04-14T04:21:17.587Z,60.53
2023-04-14T04:22:17.582Z,60.37
2023-04-14T04:23:17.586Z,60.30
2023-04-14T04:24:17.584Z,59.34
2023-04-14T04:25:17.559Z,59.25
2023-04-14T04:26:17.548Z,61.89
2023-04-14T04:27:27.090Z,56.90
2023-04-14T04:28:19.568Z,59.36
2023-04-14T04:29:17.567Z,59.32
2023-04-14T04:30:17.517Z,60.82
2023-04-14T04:31:17.506Z,58.04
2023-04-14T04:32:17.570Z,61.61
2023-04-14T04:33:17.508Z,58.77
2023-04-14T04:34:17.526Z,59.13
2023-04-14T04:35:17.487Z,58.00
2023-04-14T04:36:17.468Z,64.67
2023-04-14T04:37:17.463Z,59.14
2023-04-14T04:38:17.453Z,62.31
2023-04-14T04:39:17.476Z,58.01
2023-04-14T04:40:17.443Z,63.16
2023-04-14T04:41:17.431Z,56.61
2023-04-14T04:42:17.425Z,61.58
2023-04-14T04:43:17.412Z,53.67
2023-04-14T04:44:17.433Z,62.06
2023-04-14T04:45:17.401Z,63.49
2023-04-14T04:46:17.439Z,58.71
2023-04-14T04:47:18.398Z,61.91
2023-04-14T04:48:17.384Z,57.56
2023-04-14T04:49:17.397Z,59.64
2023-04-14T04:50:18.994Z,57.58
2023-04-14T04:51:18.349Z,61.23
2023-04-14T04:52:17.345Z,61.31
2023-04-14T04:53:17.338Z,59.46
2023-04-14T04:54:17.360Z,56.16
2023-04-14T04:55:17.322Z,61.00
2023-04-14T04:56:17.321Z,54.90
2023-04-14T04:57:17.325Z,61.30
2023-04-14T04:58:17.304Z,60.20
2023-04-14T04:59:17.313Z,60.72
2023-04-14T05:00:17.278Z,59.79
2023-04-14T05:01:17.338Z,60.39
2023-04-14T05:02:17.311Z,66.79
2023-04-14T05:03:17.284Z,60.71
2023-04-14T05:04:17.354Z,57.97
2023-04-14T05:05:17.260Z,59.67
2023-04-14T05:06:17.239Z,61.67
2023-04-14T05:07:17.230Z,63.56
2023-04-14T05:08:17.227Z,60.36
2023-04-14T05:09:17.240Z,60.39
2023-04-14T05:10:17.220Z,57.22
2023-04-14T05:11:17.209Z,61.51
2023-04-14T05:12:17.204Z,63.35
2023-04-14T05:13:17.177Z,58.38
2023-04-14T05:14:18.204Z,57.30
2023-04-14T05:15:17.179Z,62.31
2023-04-14T05:16:17.342Z,61.48
2023-04-14T05:17:17.151Z,60.06
2023-04-14T05:18:17.140Z,57.99
2023-04-14T05:19:17.167Z,59.41
2023-04-14T05:20:17.132Z,58.57
2023-04-14T05:21:17.127Z,59.23
2023-04-14T05:22:17.111Z,60.89
2023-04-14T05:23:17.107Z,59.74
2023-04-14T05:24:17.094Z,57.59
2023-04-14T05:25:17.107Z,60.75
2023-04-14T05:27:18.074Z,57.27
2023-04-14T05:28:17.061Z,56.04
2023-04-14T05:29:17.056Z,52.64
2023-04-14T05:30:17.080Z,54.98
2023-04-14T05:31:17.087Z,59.57
2023-04-14T05:32:17.041Z,58.97
2023-04-14T05:33:17.033Z,60.42
2023-04-14T05:34:17.035Z,58.71
2023-04-14T05:35:17.023Z,56.46
2023-04-14T05:36:18.008Z,57.21
2023-04-14T05:37:16.990Z,57.57
2023-04-14T05:38:16.988Z,60.71
2023-04-14T05:39:16.976Z,58.00
2023-04-14T05:40:16.995Z,55.06
2023-04-14T05:41:16.961Z,59.99
2023-04-14T05:42:16.963Z,55.76
2023-04-14T05:43:16.947Z,60.81
2023-04-14T05:44:16.929Z,59.37
2023-04-14T05:45:16.972Z,60.70
2023-04-14T05:46:16.966Z,60.90
2023-04-14T05:47:16.902Z,61.08
2023-04-14T05:48:16.942Z,58.35
2023-04-14T05:49:16.888Z,57.52
2023-04-14T05:50:16.920Z,60.83
2023-04-14T05:51:16.883Z,57.38
2023-04-14T05:52:16.881Z,60.76
2023-04-14T05:53:16.857Z,60.53
2023-04-14T05:54:16.866Z,58.33
2023-04-14T05:55:16.876Z,56.64
2023-04-14T05:56:16.834Z,63.20
2023-04-14T05:57:16.834Z,59.54
2023-04-14T05:58:16.823Z,62.13
2023-04-14T05:59:16.848Z,57.37
2023-04-14T06:00:16.843Z,55.75
2023-04-14T06:01:16.830Z,53.15
2023-04-14T06:02:16.905Z,57.60
2023-04-14T06:03:17.150Z,59.63
2023-04-14T06:04:16.949Z,61.36
2023-04-14T06:05:16.829Z,60.07
2023-04-14T06:06:16.757Z,61.20
2023-04-14T06:07:16.746Z,62.51
2023-04-14T06:08:16.740Z,63.93
2023-04-14T06:09:16.735Z,62.29
2023-04-14T06:10:16.747Z,60.70
2023-04-14T06:11:16.714Z,62.07
2023-04-14T06:12:16.701Z,58.71
2023-04-14T06:13:16.695Z,59.42
2023-04-14T06:14:16.689Z,59.82
2023-04-14T06:15:16.693Z,59.05
2023-04-14T06:16:17.730Z,61.40
2023-04-14T06:17:16.680Z,60.69
2023-04-14T06:18:16.660Z,58.06
2023-04-14T06:19:16.649Z,60.19
2023-04-14T06:20:16.669Z,60.97
2023-04-14T06:21:16.640Z,60.41
2023-04-14T06:22:16.650Z,61.49
2023-04-14T06:23:16.617Z,60.38
2023-04-14T06:24:16.622Z,60.35
2023-04-14T06:25:16.643Z,62.68
2023-04-14T06:26:16.606Z,59.97
2023-04-14T06:27:16.590Z,64.94
2023-04-14T06:28:16.581Z,60.52
2023-04-14T06:29:16.574Z,57.14
2023-04-14T06:30:16.626Z,60.82
2023-04-14T06:31:16.589Z,59.23
2023-04-14T06:32:16.600Z,60.39
2023-04-14T06:33:16.550Z,57.67
2023-04-14T06:34:16.535Z,60.33
2023-04-14T06:35:25.687Z,58.45
2023-04-14T06:36:18.535Z,56.36
2023-04-14T06:37:16.510Z,57.94
2023-04-14T06:38:16.496Z,56.32
2023-04-14T06:39:16.490Z,57.05
2023-04-14T06:40:16.511Z,56.18
2023-04-14T06:41:16.485Z,62.18
2023-04-14T06:42:16.465Z,58.21
2023-04-14T06:43:16.461Z,59.64
2023-04-14T06:44:16.449Z,57.95
2023-04-14T06:45:16.470Z,55.76
2023-04-14T06:46:16.475Z,57.33
2023-04-14T06:47:16.426Z,54.80
2023-04-14T06:48:16.416Z,55.17
2023-04-14T06:49:16.422Z,57.71
2023-04-14T06:50:16.441Z,54.92
2023-04-14T06:51:16.401Z,55.57
2023-04-14T06:52:16.399Z,58.34
2023-04-14T06:53:16.387Z,58.98
2023-04-14T06:54:16.371Z,61.00
2023-04-14T06:55:16.389Z,62.87
2023-04-14T06:56:16.356Z,57.03
2023-04-14T06:57:16.365Z,60.22
2023-04-14T06:58:16.385Z,61.28
2023-04-14T06:59:16.338Z,61.67
2023-04-14T07:00:16.352Z,58.74
2023-04-14T07:01:16.340Z,59.08
2023-04-14T07:02:16.420Z,61.23
2023-04-14T07:03:16.354Z,65.92
2023-04-14T07:04:16.363Z,63.95
2023-04-14T07:05:16.317Z,65.16
2023-04-14T07:06:16.282Z,62.18
2023-04-14T07:07:16.280Z,59.29
2023-04-14T07:08:16.263Z,59.14
2023-04-14T07:09:16.423Z,62.81
2023-04-14T07:10:16.285Z,58.29
2023-04-14T07:11:16.241Z,55.21
2023-04-14T07:12:16.240Z,57.48
2023-04-14T07:13:16.242Z,61.24
2023-04-14T07:14:16.216Z,59.73
2023-04-14T07:15:16.237Z,58.90
2023-04-14T07:16:16.261Z,53.79
2023-04-14T07:17:16.196Z,59.14
2023-04-14T07:18:16.201Z,64.14
2023-04-14T07:19:16.181Z,59.33
2023-04-14T07:20:17.201Z,58.48
2023-04-14T07:21:16.158Z,58.92
2023-04-14T07:22:16.158Z,57.27
2023-04-14T07:23:16.152Z,57.88
2023-04-14T07:24:16.147Z,61.33
2023-04-14T07:25:16.157Z,58.95
2023-04-14T07:26:16.121Z,58.68
2023-04-14T07:27:16.114Z,54.85
2023-04-14T07:28:16.128Z,61.56
2023-04-14T07:29:16.101Z,60.03
2023-04-14T07:30:16.118Z,55.21
2023-04-14T07:31:16.109Z,61.15
2023-04-14T07:32:16.074Z,56.15
2023-04-14T07:33:16.077Z,61.07
2023-04-14T07:34:16.059Z,57.27
2023-04-14T07:35:16.079Z,58.10
2023-04-14T07:36:16.044Z,58.02
2023-04-14T07:37:16.041Z,60.84
2023-04-14T07:38:16.027Z,61.25
2023-04-14T07:39:16.025Z,57.93
2023-04-14T07:40:16.042Z,55.98
2023-04-14T07:41:16.013Z,57.38
2023-04-14T07:42:16.012Z,58.56
2023-04-14T07:43:15.983Z,54.84
2023-04-14T07:44:15.975Z,62.26
2023-04-14T07:45:15.996Z,57.29
2023-04-14T07:46:16.032Z,57.16
2023-04-14T07:47:15.965Z,56.01
2023-04-14T07:48:15.947Z,57.31
2023-04-14T07:49:15.949Z,55.28
2023-04-14T07:50:17.166Z,58.95
2023-04-14T07:51:15.927Z,57.17
2023-04-14T07:52:15.922Z,57.08
2023-04-14T07:53:15.909Z,57.86
2023-04-14T07:54:15.901Z,57.17
2023-04-14T07:55:15.947Z,58.49
2023-04-14T07:56:15.882Z,58.13
2023-04-14T07:57:15.879Z,55.17
2023-04-14T07:58:15.998Z,62.00
2023-04-14T07:59:15.863Z,58.56
2023-04-14T08:00:15.894Z,61.54
2023-04-14T08:01:15.845Z,57.05
2023-04-14T08:02:15.926Z,63.41
2023-04-14T08:03:15.985Z,61.14
2023-04-14T08:04:16.007Z,62.71
2023-04-14T08:05:15.887Z,62.75
2023-04-14T08:06:15.806Z,60.11
2023-04-14T08:07:15.791Z,63.62
2023-04-14T08:08:15.789Z,62.18
2023-04-14T08:09:15.810Z,58.92
2023-04-14T08:10:15.806Z,64.42
2023-04-14T08:11:15.770Z,60.42
2023-04-14T08:12:15.759Z,57.80
2023-04-14T08:13:15.761Z,61.88
2023-04-14T08:14:15.748Z,65.66
2023-04-14T08:15:15.774Z,61.68
2023-04-14T08:16:15.758Z,60.85
2023-04-14T08:17:15.745Z,61.23
2023-04-14T08:18:16.717Z,63.18
2023-04-14T08:19:15.706Z,62.75
2023-04-14T08:20:15.725Z,59.57
2023-04-14T08:21:15.690Z,60.61
2023-04-14T08:22:15.704Z,58.69
2023-04-14T08:23:15.672Z,60.96
2023-04-14T08:24:15.670Z,62.38
2023-04-14T08:25:15.683Z,58.32
2023-04-14T08:26:15.693Z,61.80
2023-04-14T08:27:15.688Z,58.36
2023-04-14T08:28:15.655Z,62.26
2023-04-14T08:29:15.629Z,62.10
2023-04-14T08:30:15.647Z,60.91
2023-04-14T08:31:15.661Z,61.69
2023-04-14T08:32:15.796Z,61.77
2023-04-14T08:33:15.768Z,61.45
2023-04-14T08:34:15.590Z,61.98
2023-04-14T08:35:36.923Z,62.18
2023-04-14T08:36:16.573Z,57.23
2023-04-14T08:37:15.567Z,61.90
2023-04-14T08:38:15.563Z,62.40
2023-04-14T08:39:15.559Z,57.44
2023-04-14T08:40:15.588Z,61.08
2023-04-14T08:41:15.535Z,61.85
2023-04-14T08:42:15.534Z,61.00
2023-04-14T08:43:15.632Z,63.16
2023-04-14T08:44:16.508Z,62.64
2023-04-14T08:45:15.541Z,60.06
2023-04-14T08:46:15.531Z,58.84
2023-04-14T08:47:15.491Z,61.85
2023-04-14T08:48:15.498Z,61.30
2023-04-14T08:49:15.474Z,57.81
2023-04-14T08:50:15.506Z,62.84
2023-04-14T08:51:15.477Z,56.91
2023-04-14T08:52:15.454Z,59.05
2023-04-14T08:53:15.457Z,56.80
2023-04-14T08:54:15.436Z,59.48
2023-04-14T08:55:15.490Z,58.99
2023-04-14T08:56:15.424Z,59.69
2023-04-14T08:57:15.412Z,62.46
2023-04-14T08:58:15.398Z,61.64
2023-04-14T08:59:15.397Z,59.18
2023-04-14T09:00:15.413Z,61.35
2023-04-14T09:01:15.475Z,58.50
2023-04-14T09:02:15.431Z,51.69
2023-04-14T09:03:15.456Z,57.20
2023-04-14T09:04:15.509Z,57.04
2023-04-14T09:05:15.362Z,58.40
2023-04-14T09:06:15.366Z,59.15
2023-04-14T09:07:15.337Z,60.98
2023-04-14T09:08:15.334Z,59.58
2023-04-14T09:09:15.313Z,60.56
2023-04-14T09:10:15.338Z,59.34
2023-04-14T09:11:15.320Z,62.67
2023-04-14T09:12:15.290Z,61.32
2023-04-14T09:13:15.389Z,64.36
2023-04-14T09:14:15.278Z,59.49
2023-04-14T09:15:15.298Z,59.21
2023-04-14T09:16:15.297Z,56.15
2023-04-14T09:17:15.286Z,60.69
2023-04-14T09:18:15.256Z,63.56
2023-04-14T09:19:15.255Z,61.03
2023-04-14T09:20:36.397Z,58.63
2023-04-14T09:21:34.316Z,61.03
2023-04-14T09:22:16.218Z,66.42
2023-04-14T09:23:15.204Z,59.36
2023-04-14T09:24:15.198Z,59.84
2023-04-14T09:25:15.226Z,60.12
2023-04-14T09:26:15.180Z,57.16
2023-04-14T09:27:15.185Z,61.86
2023-04-14T09:28:15.170Z,57.40
2023-04-14T09:29:15.157Z,52.84
2023-04-14T09:30:15.180Z,57.89
2023-04-14T09:31:15.251Z,58.18
2023-04-14T09:32:15.142Z,57.69
2023-04-14T09:33:15.152Z,60.82
2023-04-14T09:34:15.153Z,62.13
2023-04-14T09:35:15.173Z,58.75
2023-04-14T09:36:15.109Z,58.62
2023-04-14T09:37:15.106Z,59.15
2023-04-14T09:38:15.111Z,60.34
2023-04-14T09:39:15.081Z,59.08
2023-04-14T09:40:15.105Z,59.33
2023-04-14T09:41:15.063Z,54.27
2023-04-14T09:42:15.059Z,57.07
2023-04-14T09:43:15.048Z,57.12
2023-04-14T09:44:15.037Z,58.90
2023-04-14T09:45:15.065Z,58.72
2023-04-14T09:46:15.079Z,57.05
2023-04-14T09:47:15.016Z,59.88
2023-04-14T09:48:15.047Z,61.01
2023-04-14T09:49:15.004Z,58.21
2023-04-14T09:50:15.015Z,57.88
2023-04-14T09:51:14.984Z,57.91
2023-04-14T09:52:14.979Z,60.63
2023-04-14T09:53:14.974Z,59.82
2023-04-14T09:54:14.961Z,57.43
2023-04-14T09:55:15.009Z,58.80
2023-04-14T09:56:14.951Z,61.02
2023-04-14T09:57:14.935Z,62.11
2023-04-14T09:58:14.948Z,60.44
2023-04-14T09:59:14.923Z,61.99
2023-04-14T10:00:14.951Z,60.91
2023-04-14T10:01:14.974Z,60.01
2023-04-14T10:02:15.095Z,59.25
2023-04-14T10:03:14.967Z,58.39
2023-04-14T10:04:14.900Z,57.37
2023-04-14T10:05:14.966Z,61.92
2023-04-14T10:06:14.877Z,58.40
2023-04-14T10:07:14.865Z,59.55
2023-04-14T10:08:14.852Z,57.88
2023-04-14T10:09:14.858Z,60.07
2023-04-14T10:10:14.840Z,60.42
2023-04-14T10:11:14.872Z,60.27
2023-04-14T10:12:14.843Z,60.33
2023-04-14T10:13:14.822Z,61.32
2023-04-14T10:14:14.813Z,59.22
2023-04-14T10:15:14.812Z,58.96
2023-04-14T10:16:14.918Z,58.84
2023-04-14T10:17:14.798Z,59.56
2023-04-14T10:18:14.821Z,58.37
2023-04-14T10:19:14.791Z,52.88
2023-04-14T10:20:14.766Z,58.18
2023-04-14T10:21:14.783Z,50.82
2023-04-14T10:22:14.749Z,60.67
2023-04-14T10:23:14.748Z,58.27
2023-04-14T10:24:14.752Z,59.60
2023-04-14T10:25:14.735Z,57.02
2023-04-14T10:26:14.758Z,58.63
2023-04-14T10:27:14.714Z,49.78
2023-04-14T10:28:14.706Z,58.37
2023-04-14T10:29:14.694Z,60.02
2023-04-14T10:30:14.701Z,60.19
2023-04-14T10:31:14.779Z,62.35
2023-04-14T10:32:14.692Z,58.61
2023-04-14T10:33:14.677Z,60.14
2023-04-14T10:34:14.687Z,61.57
2023-04-14T10:35:14.668Z,62.14
2023-04-14T10:36:14.668Z,60.58
2023-04-14T10:37:15.647Z,60.96
2023-04-14T10:38:14.675Z,60.63
2023-04-14T10:39:14.622Z,60.98
2023-04-14T10:40:14.625Z,60.65
2023-04-14T10:41:14.634Z,62.23
2023-04-14T10:42:14.600Z,60.36
2023-04-14T10:43:14.591Z,57.75
2023-04-14T10:44:14.593Z,60.33
2023-04-14T10:45:14.588Z,58.29
2023-04-14T10:46:15.333Z,62.86
2023-04-14T10:47:14.586Z,61.95
2023-04-14T10:48:14.557Z,58.76
2023-04-14T10:49:14.543Z,57.22
2023-04-14T10:50:14.557Z,59.44
2023-04-14T10:51:14.571Z,56.07
2023-04-14T10:52:14.533Z,54.96
2023-04-14T10:53:14.521Z,56.42
2023-04-14T10:54:14.516Z,58.30
2023-04-14T10:55:14.503Z,54.69
2023-04-14T10:56:14.558Z,58.16
2023-04-14T10:57:14.511Z,57.06
2023-04-14T10:58:14.496Z,56.75
2023-04-14T10:59:14.467Z,58.29
2023-04-14T11:00:14.468Z,61.22
2023-04-14T11:01:14.519Z,58.27
2023-04-14T11:02:14.523Z,55.27
2023-04-14T11:03:14.540Z,57.02
2023-04-14T11:04:14.541Z,55.25
2023-04-14T11:05:14.432Z,54.50
2023-04-14T11:06:14.434Z,53.36
2023-04-14T11:07:14.409Z,62.65
2023-04-14T11:08:14.393Z,59.95
2023-04-14T11:09:14.389Z,61.25
2023-04-14T11:10:14.377Z,55.04
2023-04-14T11:11:14.373Z,56.67
2023-04-14T11:12:14.387Z,59.23
2023-04-14T11:13:16.549Z,54.63
2023-04-14T11:14:14.354Z,53.90
2023-04-14T11:15:14.336Z,55.92
2023-04-14T11:16:15.353Z,57.33
2023-04-14T11:17:14.381Z,57.96
2023-04-14T11:18:14.561Z,55.29
2023-04-14T11:19:14.318Z,56.56
2023-04-14T11:20:14.300Z,57.63
2023-04-14T11:21:14.326Z,57.46
2023-04-14T11:22:14.307Z,57.83
2023-04-14T11:23:14.281Z,58.05
2023-04-14T11:24:14.274Z,58.96
2023-04-14T11:25:14.265Z,57.74
2023-04-14T11:26:14.458Z,61.96
2023-04-14T11:27:14.266Z,56.10
2023-04-14T11:28:14.232Z,59.23
2023-04-14T11:29:14.229Z,58.48
2023-04-14T11:30:14.212Z,58.98
2023-04-14T11:31:15.225Z,58.67
2023-04-14T11:32:14.280Z,56.17
2023-04-14T11:33:14.251Z,56.32
2023-04-14T11:34:14.186Z,58.73
2023-04-14T11:35:14.182Z,60.18
2023-04-14T11:36:14.176Z,59.12
2023-04-14T11:37:14.193Z,59.31
2023-04-14T11:38:14.233Z,58.44
2023-04-14T11:39:14.151Z,60.84
2023-04-14T11:40:14.142Z,58.11
2023-04-14T11:41:14.144Z,60.46
2023-04-14T11:42:14.150Z,59.27
2023-04-14T11:43:14.133Z,60.87
2023-04-14T11:44:14.119Z,61.24
2023-04-14T11:45:14.135Z,63.11
2023-04-14T11:46:14.131Z,64.09
2023-04-14T11:47:14.127Z,67.16
2023-04-14T11:48:14.086Z,66.29
2023-04-14T11:49:14.075Z,64.52
2023-04-14T11:50:14.061Z,66.28
2023-04-14T11:51:14.080Z,68.40
2023-04-14T11:52:14.081Z,69.98
2023-04-14T11:53:14.050Z,65.38
2023-04-14T11:54:14.070Z,64.23
2023-04-14T11:55:14.029Z,65.02
2023-04-14T11:56:14.026Z,67.04
2023-04-14T11:57:14.043Z,65.12
2023-04-14T11:58:14.006Z,64.79
2023-04-14T11:59:14.000Z,63.01
2023-04-14T12:00:14.000Z,64.65
2023-04-14T12:01:13.998Z,64.30
2023-04-14T12:02:14.070Z,63.79
2023-04-14T12:03:14.125Z,67.02
2023-04-14T12:04:14.095Z,66.83
2023-04-14T12:05:14.150Z,68.20
2023-04-14T12:06:13.961Z,65.37
2023-04-14T12:07:13.968Z,66.17
2023-04-14T12:08:13.931Z,66.17
2023-04-14T12:09:13.923Z,65.33
2023-04-14T12:10:13.934Z,64.94
2023-04-14T12:11:13.964Z,66.54
2023-04-14T12:12:13.924Z,63.17
2023-04-14T12:13:13.906Z,64.45
2023-04-14T12:14:13.885Z,65.11
2023-04-14T12:15:13.876Z,64.89
2023-04-14T12:16:13.971Z,65.79
2023-04-14T12:17:13.900Z,65.08
2023-04-14T12:18:14.160Z,65.08
2023-04-14T12:19:13.850Z,65.10
2023-04-14T12:20:13.883Z,63.45
2023-04-14T12:21:13.832Z,63.68
2023-04-14T12:22:13.846Z,66.74
2023-04-14T12:23:13.814Z,64.08
2023-04-14T12:24:13.805Z,65.29
2023-04-14T12:25:13.804Z,64.37
2023-04-14T12:26:13.804Z,64.89
2023-04-14T12:27:13.805Z,64.63
2023-04-14T12:28:13.774Z,62.62
2023-04-14T12:29:13.790Z,64.86
2023-04-14T12:30:13.859Z,64.58
2023-04-14T12:31:13.790Z,64.64
2023-04-14T12:32:13.786Z,63.18
2023-04-14T12:33:13.763Z,64.41
2023-04-14T12:34:13.738Z,62.68
2023-04-14T12:35:13.715Z,63.08
2023-04-14T12:36:13.712Z,63.18
2023-04-14T12:37:13.930Z,60.64
2023-04-14T12:38:13.742Z,63.29
2023-04-14T12:39:13.693Z,63.75
2023-04-14T12:40:13.689Z,63.23
2023-04-14T12:41:13.675Z,63.66
2023-04-14T12:42:13.694Z,67.35
2023-04-14T12:43:13.659Z,63.41
2023-04-14T12:44:13.650Z,63.66
2023-04-14T12:45:13.641Z,63.79
2023-04-14T12:46:13.661Z,65.60
2023-04-14T12:47:13.736Z,64.76
2023-04-14T12:48:13.697Z,63.34
2023-04-14T12:49:13.613Z,67.29
2023-04-14T12:50:13.665Z,66.29
2023-04-14T12:51:13.594Z,69.10
2023-04-14T12:52:13.590Z,64.07
2023-04-14T12:53:13.607Z,64.15